Time;durP1;ratioP1;P1;durP2;ratioP2;P2;SDS_P1;SDS_P2;PMS_P1;PMS_P2;Temp;Humidity;BMP_temperature;BMP_pressure;BME280_temperature;BME280_humidity;BME280_pressure;Samples;Min_cycle;Max_cycle;Signal;HPM_P1;HPM_P2
2021/01/31 00:03:08;;;;;;;71.35;37.95;;;;;;;-3.77;68.62;99186.72;2859144;83;21141;-63
2021/01/31 00:07:12;;;;;;;59.00;31.87;;;;;;;-3.73;69.36;99180.52;2859054;82;21161;-63
2021/01/31 00:11:14;;;;;;;53.15;29.45;;;;;;;-3.67;68.51;99187.19;2859097;83;21154;-62
2021/01/31 00:15:21;;;;;;;64.82;32.38;;;;;;;-3.71;69.67;99184.33;2859014;82;21203;-62
2021/01/31 00:19:24;;;;;;;58.15;32.78;;;;;;;-3.53;70.98;99178.85;2859094;82;21130;-62
2021/01/31 00:23:26;;;;;;;49.08;27.95;;;;;;;-3.41;71.05;99169.22;2859337;83;21157;-63
2021/01/31 00:27:31;;;;;;;46.20;23.45;;;;;;;-3.34;69.15;99171.97;2858850;83;21125;-62
2021/01/31 00:31:34;;;;;;;48.83;26.10;;;;;;;-3.61;67.29;99172.66;2859333;83;21157;-63
2021/01/31 00:35:39;;;;;;;39.90;22.95;;;;;;;-3.94;68.32;99168.75;2859141;82;21162;-62
2021/01/31 00:39:43;;;;;;;62.62;30.68;;;;;;;-4.00;68.55;99174.67;2859411;83;21150;-63
2021/01/31 00:43:46;;;;;;;55.15;27.17;;;;;;;-4.01;69.68;99179.00;2858889;83;21189;-64
2021/01/31 00:47:50;;;;;;;56.42;32.65;;;;;;;-4.02;69.60;99183.38;2859164;82;21118;-63
2021/01/31 00:51:52;;;;;;;62.78;33.78;;;;;;;-4.26;70.86;99185.60;2859326;82;21176;-64
2021/01/31 00:55:55;;;;;;;73.37;39.75;;;;;;;-4.47;71.54;99175.13;2859095;83;21153;-62
2021/01/31 00:59:58;;;;;;;123.20;55.17;;;;;;;-4.69;72.63;99180.30;2859068;83;21149;-63
2021/01/31 01:04:01;;;;;;;83.78;46.25;;;;;;;-4.89;72.80;99180.58;2859227;83;21173;-63
2021/01/31 01:08:05;;;;;;;73.55;42.95;;;;;;;-4.96;73.98;99185.13;2859044;82;21161;-63
2021/01/31 01:12:08;;;;;;;63.98;33.28;;;;;;;-4.92;74.94;99191.03;2859190;82;21137;-63
2021/01/31 01:16:11;;;;;;;50.92;29.05;;;;;;;-4.94;74.80;99196.30;2858982;83;21169;-63
2021/01/31 01:20:17;;;;;;;70.03;41.45;;;;;;;-5.00;75.31;99196.52;2859347;83;21090;-63
2021/01/31 01:24:20;;;;;;;92.02;49.88;;;;;;;-4.92;77.00;99200.11;2859091;82;21146;-62
2021/01/31 01:28:23;;;;;;;83.05;48.08;;;;;;;-4.51;77.94;99202.98;2858978;83;21145;-63
2021/01/31 01:32:26;;;;;;;80.90;41.90;;;;;;;-4.17;77.19;99202.15;2859346;82;21162;-64
2021/01/31 01:36:29;;;;;;;68.22;42.20;;;;;;;-3.94;76.78;99192.60;2859369;83;21579;-63
2021/01/31 01:40:36;;;;;;;73.35;38.78;;;;;;;-3.80;76.17;99188.15;2859404;82;21113;-64
2021/01/31 01:44:40;;;;;;;52.73;28.77;;;;;;;-3.55;76.37;99183.23;2858931;83;21686;-63
2021/01/31 01:48:51;;;;;;;51.65;30.25;;;;;;;-3.47;75.22;99170.78;2859274;83;21153;-65
2021/01/31 01:52:58;;;;;;;57.55;35.50;;;;;;;-3.63;75.33;99180.98;2859175;81;21145;-65
2021/01/31 01:57:11;;;;;;;73.90;40.58;;;;;;;-3.52;76.59;99175.34;2859147;82;21137;-63
2021/01/31 02:01:17;;;;;;;59.25;35.30;;;;;;;-3.23;76.84;99187.11;2859067;82;21126;-64
2021/01/31 02:05:19;;;;;;;75.90;42.15;;;;;;;-3.06;75.80;99191.58;2859193;82;21153;-64
2021/01/31 02:09:23;;;;;;;65.15;38.48;;;;;;;-2.84;76.77;99189.34;2858889;83;21133;-63
2021/01/31 02:13:27;;;;;;;80.67;41.95;;;;;;;-2.54;76.42;99185.43;2859160;83;21113;-64
2021/01/31 02:17:55;;;;;;;99.90;45.92;;;;;;;-2.53;76.10;99189.72;2800320;84;21145;-64
2021/01/31 02:22:37;;;;;;;178.23;93.40;;;;;;;-2.38;75.57;99191.63;2813418;84;21160;-63
2021/01/31 02:26:58;;;;;;;160.35;84.25;;;;;;;-2.74;74.31;99195.84;2812101;84;21168;-62
2021/01/31 02:31:20;;;;;;;90.17;53.33;;;;;;;-2.94;75.02;99204.98;2813555;83;21140;-62
2021/01/31 02:35:27;;;;;;;110.83;57.50;;;;;;;-2.80;76.31;99197.39;2813578;84;21137;-60
2021/01/31 02:39:51;;;;;;;;;;;;;;;-2.54;76.52;99192.80;2816229;84;21149;-64
2021/01/31 02:43:55;;;;;;;109.27;58.98;;;;;;;-2.52;75.34;99196.17;2813395;84;20215;-62
2021/01/31 02:48:06;;;;;;;80.62;45.95;;;;;;;-2.57;76.00;99194.22;2808917;84;21152;-64
2021/01/31 02:52:17;;;;;;;81.55;40.60;;;;;;;-2.50;76.39;99198.69;2808970;84;21543;-67
2021/01/31 02:56:48;;;;;;;67.55;32.55;;;;;;;-2.41;77.80;99206.10;2809015;84;21165;-63
2021/01/31 03:01:30;;;;;;;48.85;28.35;;;;;;;-2.29;77.71;99208.60;2808833;84;21109;-67
2021/01/31 03:05:43;;;;;;;37.00;20.05;;;;;;;-2.38;78.06;99214.22;2809447;84;21137;-64
2021/01/31 03:09:59;;;;;;;25.92;16.95;;;;;;;-2.39;78.77;99219.04;2809449;84;21144;-63
2021/01/31 03:14:16;;;;;;;27.37;15.38;;;;;;;-2.30;80.23;99231.66;2809131;84;21089;-65
2021/01/31 03:18:24;;;;;;;22.93;14.83;;;;;;;-2.02;80.76;99231.67;2803650;84;21149;-62
2021/01/31 03:22:38;;;;;;;23.05;13.30;;;;;;;-1.77;80.22;99240.94;2809196;84;21101;-66
2021/01/31 03:26:52;;;;;;;20.17;14.35;;;;;;;-1.60;79.67;99239.67;2809141;83;21117;-66
2021/01/31 03:30:58;;;;;;;23.32;13.08;;;;;;;-1.43;79.58;99243.23;2812548;83;21143;-64
2021/01/31 03:35:05;;;;;;;27.70;14.05;;;;;;;-1.30;79.09;99241.72;2813132;83;21147;-67
2021/01/31 03:39:17;;;;;;;26.62;14.20;;;;;;;-1.10;78.71;99247.70;3117153;76;22430;-64
2021/01/31 03:43:21;;;;;;;25.10;14.43;;;;;;;-1.02;78.75;99245.53;3064981;77;21073;-63
2021/01/31 03:47:43;;;;;;;24.82;13.18;;;;;;;-0.94;78.40;99252.98;3064888;77;21125;-65
2021/01/31 03:51:47;;;;;;;22.58;16.25;;;;;;;-0.86;78.57;99244.77;3028323;77;21123;-65
2021/01/31 03:55:50;;;;;;;32.50;17.60;;;;;;;-0.70;78.70;99242.67;3009877;79;21125;-63
2021/01/31 03:59:58;;;;;;;31.75;17.35;;;;;;;-0.56;78.38;99249.78;3009852;79;21125;-64
2021/01/31 04:04:20;;;;;;;32.10;15.00;;;;;;;-0.57;77.59;99250.26;2980813;79;21105;-68
2021/01/31 04:08:24;;;;;;;54.90;31.55;;;;;;;-0.67;76.91;99252.95;3000302;79;21125;-63
2021/01/31 04:12:32;;;;;;;50.15;30.45;;;;;;;-0.77;78.03;99250.83;3009690;79;21149;-65
2021/01/31 04:16:43;;;;;;;69.92;35.33;;;;;;;-0.77;77.17;99257.36;3009409;78;21575;-63
2021/01/31 04:20:48;;;;;;;62.53;37.38;;;;;;;-0.91;77.15;99252.82;3009033;79;21098;-65
2021/01/31 04:24:51;;;;;;;57.33;32.88;;;;;;;-0.94;77.80;99256.90;3009777;79;21144;-65
2021/01/31 04:28:54;;;;;;;43.40;26.35;;;;;;;-0.74;78.27;99248.06;3009570;79;21169;-63
2021/01/31 04:32:56;;;;;;;47.88;23.77;;;;;;;-0.78;77.71;99252.20;3009711;79;21156;-65
2021/01/31 04:36:59;;;;;;;41.35;23.05;;;;;;;-0.74;78.34;99255.03;3009612;77;21157;-62
2021/01/31 04:41:02;;;;;;;60.80;29.23;;;;;;;-0.62;77.85;99259.63;3009954;79;21105;-67
2021/01/31 04:45:10;;;;;;;64.72;32.00;;;;;;;-0.55;77.84;99260.16;3009744;79;21097;-64
2021/01/31 04:50:00;;;;;;;49.45;28.50;;;;;;;-0.56;77.74;99258.48;3008880;77;21125;-64
2021/01/31 04:54:35;;;;;;;39.78;22.40;;;;;;;-0.49;77.49;99266.36;3008969;79;21465;-64
2021/01/31 04:58:47;;;;;;;71.92;33.73;;;;;;;-0.40;77.25;99269.41;2986838;79;21128;-64
2021/01/31 05:02:58;;;;;;;56.55;28.62;;;;;;;-0.42;77.32;99266.03;3008901;79;21093;-63
2021/01/31 05:07:06;;;;;;;49.30;27.75;;;;;;;-0.35;76.59;99266.11;3008557;79;21129;-63
2021/01/31 05:11:26;;;;;;;44.18;27.02;;;;;;;-0.47;76.46;99278.88;3008884;79;21125;-66
2021/01/31 05:15:38;;;;;;;39.75;26.40;;;;;;;-0.51;75.87;99281.72;3007282;79;21149;-64
2021/01/31 05:19:42;;;;;;;55.08;31.95;;;;;;;-0.59;76.69;99286.04;3009063;78;21152;-62
2021/01/31 05:23:50;;;;;;;54.70;30.52;;;;;;;-0.58;76.45;99288.59;3008901;79;21137;-65
2021/01/31 05:27:59;;;;;;;69.25;31.62;;;;;;;-0.60;75.95;99288.27;3008073;79;21117;-65
2021/01/31 05:32:09;;;;;;;62.75;33.45;;;;;;;-0.66;75.29;99293.82;2964068;78;21151;-63
2021/01/31 05:36:16;;;;;;;70.08;32.13;;;;;;;-0.69;75.83;99298.73;2959646;80;21142;-64
2021/01/31 05:40:37;;;;;;;75.95;33.38;;;;;;;-0.67;75.51;99304.75;2931612;80;21132;-63
2021/01/31 05:44:41;;;;;;;67.90;32.30;;;;;;;-0.63;75.58;99300.19;2959548;80;21243;-64
2021/01/31 05:48:44;;;;;;;65.17;34.75;;;;;;;-0.59;75.60;99308.24;2959560;80;21477;-64
2021/01/31 05:52:47;;;;;;;57.78;31.97;;;;;;;-0.50;75.50;99313.02;2959586;79;21136;-64
2021/01/31 05:56:49;;;;;;;58.65;32.48;;;;;;;-0.44;74.86;99310.55;3022503;78;21576;-65
2021/01/31 06:01:11;;;;;;;60.70;32.03;;;;;;;-0.41;74.99;99312.14;3049871;78;21912;-63
2021/01/31 06:05:20;;;;;;;70.90;35.88;;;;;;;-0.36;74.84;99316.20;3049912;78;21125;-64
2021/01/31 06:09:49;;;;;;;71.33;34.05;;;;;;;-0.32;74.80;99308.58;3050208;78;21121;-64
2021/01/31 06:14:17;;;;;;;62.08;33.50;;;;;;;-0.40;73.60;99321.66;3050004;77;21129;-65
2021/01/31 06:18:28;;;;;;;80.70;34.90;;;;;;;-0.46;74.26;99319.77;3049705;78;21101;-63
2021/01/31 06:22:47;;;;;;;60.70;33.08;;;;;;;-0.39;74.40;99324.66;3049504;78;21098;-65
2021/01/31 06:26:50;;;;;;;62.08;30.15;;;;;;;-0.52;73.48;99335.77;3049921;78;21097;-66
2021/01/31 06:31:07;;;;;;;64.07;32.73;;;;;;;-0.72;73.43;99333.70;3050037;77;21125;-64
2021/01/31 06:35:15;;;;;;;71.97;31.42;;;;;;;-0.77;74.10;99340.93;3049367;78;21086;-65
2021/01/31 06:39:44;;;;;;;63.25;32.90;;;;;;;-0.83;73.79;99341.22;3050006;78;21551;-65
2021/01/31 06:44:12;;;;;;;67.53;33.63;;;;;;;-0.95;74.47;99343.98;3050416;77;21082;-63
2021/01/31 06:48:57;;;;;;;93.90;43.10;;;;;;;-0.84;74.57;99348.67;3050726;78;21121;-62
2021/01/31 06:53:28;;;;;;;160.30;71.53;;;;;;;-0.79;74.22;99359.72;3050490;76;21154;-62
2021/01/31 06:57:55;;;;;;;88.65;41.45;;;;;;;-0.79;73.73;99353.67;3050470;78;21117;-68
2021/01/31 07:02:20;;;;;;;58.73;31.90;;;;;;;-0.84;74.56;99364.81;3050001;78;21066;-67
2021/01/31 07:06:48;;;;;;;48.38;28.12;;;;;;;-0.85;74.55;99368.34;3050093;78;21126;-68
2021/01/31 07:11:36;;;;;;;65.72;31.65;;;;;;;-0.88;74.40;99369.33;3050546;78;21078;-68
2021/01/31 07:16:11;;;;;;;;;;;;;;;-0.93;74.81;99371.33;3053275;78;21106;-65
2021/01/31 07:20:27;;;;;;;49.90;25.62;;;;;;;-0.88;75.09;99374.11;3050338;78;20606;-65
2021/01/31 07:24:52;;;;;;;51.40;28.10;;;;;;;-0.74;75.31;99369.50;3050529;77;21141;-66
2021/01/31 07:28:59;;;;;;;50.35;29.25;;;;;;;-0.73;75.14;99379.47;3050620;78;21145;-66
2021/01/31 07:33:19;;;;;;;52.45;26.75;;;;;;;-0.61;75.34;99375.41;3050242;78;21106;-65
2021/01/31 07:37:21;;;;;;;49.20;25.65;;;;;;;-0.47;74.73;99383.39;3050114;78;21153;-66
2021/01/31 07:41:26;;;;;;;57.70;32.28;;;;;;;-0.63;73.73;99381.17;3050067;77;21164;-65
2021/01/31 07:45:29;;;;;;;55.55;31.33;;;;;;;-0.79;73.83;99380.61;3049795;78;21082;-66
2021/01/31 07:50:05;;;;;;;53.02;30.77;;;;;;;-0.78;74.84;99384.95;3049378;76;21479;-66
2021/01/31 07:54:33;;;;;;;51.18;28.12;;;;;;;-0.58;74.83;99372.66;3050021;78;21141;-65
2021/01/31 07:58:38;;;;;;;48.02;32.13;;;;;;;-0.63;73.57;99379.86;3049589;78;21129;-68
2021/01/31 08:02:46;;;;;;;39.45;26.15;;;;;;;-0.49;73.46;99384.38;3049862;77;21572;-66
2021/01/31 08:06:53;;;;;;;65.40;51.85;;;;;;;-0.57;72.93;99384.80;3049814;78;21122;-64
2021/01/31 08:10:56;;;;;;;397.88;268.97;;;;;;;-0.69;73.62;99390.63;3049764;78;21160;-65
2021/01/31 08:15:29;;;;;;;141.20;80.87;;;;;;;-0.75;73.88;99393.93;3050001;78;21141;-66
2021/01/31 08:19:33;;;;;;;93.72;48.25;;;;;;;-0.82;74.16;99397.75;3050089;77;21114;-67
2021/01/31 08:23:45;;;;;;;95.77;55.00;;;;;;;-0.83;74.28;99398.67;3049948;78;21126;-65
2021/01/31 08:28:11;;;;;;;54.65;31.05;;;;;;;-0.86;74.36;99404.05;3050130;77;21125;-66
2021/01/31 08:32:16;;;;;;;97.65;53.80;;;;;;;-0.76;74.85;99398.77;3050138;78;21584;-60
2021/01/31 08:36:23;;;;;;;93.10;52.70;;;;;;;-0.53;75.39;99407.23;3051021;77;21129;-60
2021/01/31 08:40:26;;;;;;;239.53;110.95;;;;;;;-0.32;74.78;99405.28;3050113;78;21156;-65
2021/01/31 08:44:38;;;;;;;274.82;155.67;;;;;;;-0.26;74.05;99398.08;3050338;78;21069;-63
2021/01/31 08:48:46;;;;;;;98.33;46.83;;;;;;;-0.25;73.37;99399.77;3050284;77;21126;-65
2021/01/31 08:53:03;;;;;;;70.17;33.48;;;;;;;-0.06;72.96;99397.03;3072482;76;22861;-62
2021/01/31 08:57:14;;;;;;;63.28;36.08;;;;;;;-0.05;72.46;99398.72;3022629;78;21120;-62
2021/01/31 09:01:18;;;;;;;331.40;166.30;;;;;;;-0.05;72.47;99398.27;3022254;77;21152;-63
2021/01/31 09:05:37;;;;;;;81.08;45.60;;;;;;;0.10;71.86;99400.53;3022331;78;21129;-66
2021/01/31 09:09:56;;;;;;;77.20;41.23;;;;;;;0.23;71.09;99393.36;3022413;78;21101;-66
2021/01/31 09:14:37;;;;;;;270.27;140.77;;;;;;;0.10;70.54;99395.30;3022475;78;21101;-62
2021/01/31 09:18:45;;;;;;;111.05;52.75;;;;;;;0.24;71.04;99398.97;3022462;78;21136;-67
2021/01/31 09:23:12;;;;;;;80.87;44.80;;;;;;;0.55;70.02;99402.53;3022513;78;21156;-66
2021/01/31 09:27:30;;;;;;;110.20;52.75;;;;;;;0.50;67.68;99407.18;3024062;78;21121;-66
2021/01/31 09:31:37;;;;;;;69.62;39.65;;;;;;;0.38;67.33;99405.59;3025636;77;21132;-63
2021/01/31 09:35:40;;;;;;;318.33;162.68;;;;;;;0.09;67.68;99413.23;3027678;78;21136;-64
2021/01/31 09:39:43;;;;;;;320.33;181.95;;;;;;;0.15;67.64;99414.69;3027869;78;21096;-64
2021/01/31 09:43:52;;;;;;;355.80;189.57;;;;;;;0.30;67.39;99409.09;3027517;78;21109;-63
2021/01/31 09:47:56;;;;;;;153.05;84.65;;;;;;;0.30;66.45;99412.19;3027724;78;21132;-65
2021/01/31 09:52:05;;;;;;;446.55;270.85;;;;;;;0.44;67.15;99417.51;3018544;78;21096;-64
2021/01/31 09:56:33;;;;;;;50.70;31.20;;;;;;;0.56;66.35;99419.92;3035893;77;21109;-63
2021/01/31 10:00:35;;;;;;;60.00;35.78;;;;;;;0.54;66.31;99412.63;3056112;77;21426;-65
2021/01/31 10:04:42;;;;;;;75.25;41.00;;;;;;;0.63;65.53;99408.21;3055558;77;21171;-64
2021/01/31 10:08:59;;;;;;;;;;;;;;;0.75;65.48;99408.45;3058353;77;21164;-63
2021/01/31 10:13:37;;;;;;;52.93;32.75;;;;;;;0.89;64.83;99407.70;3055420;77;20190;-67
2021/01/31 10:17:44;;;;;;;59.90;34.43;;;;;;;0.88;63.65;99402.06;3055014;77;21129;-63
2021/01/31 10:21:51;;;;;;;46.37;28.70;;;;;;;0.93;64.59;99400.88;3055370;77;21651;-62
2021/01/31 10:26:02;;;;;;;68.78;39.20;;;;;;;1.07;64.43;99392.72;3055170;77;21216;-62
2021/01/31 10:30:30;;;;;;;74.65;44.30;;;;;;;1.07;64.43;99392.72;3055851;77;21094;-64
2021/01/31 10:34:40;;;;;;;62.03;37.45;;;;;;;1.13;64.27;99389.29;3053962;77;21097;-63
2021/01/31 10:38:45;;;;;;;65.62;37.98;;;;;;;1.09;64.49;99397.41;3055422;77;21129;-67
2021/01/31 10:42:49;;;;;;;52.05;36.05;;;;;;;0.91;64.41;99377.04;3055276;77;21149;-67
2021/01/31 10:46:52;;;;;;;89.03;49.80;;;;;;;1.03;64.27;99399.06;3033795;77;21136;-65
2021/01/31 10:50:54;;;;;;;73.05;46.28;;;;;;;1.03;64.27;99399.06;3020649;78;21132;-66
2021/01/31 10:54:57;;;;;;;65.62;35.08;;;;;;;0.88;64.38;99399.44;3031445;78;21104;-66
2021/01/31 10:59:00;;;;;;;61.10;34.35;;;;;;;0.93;64.56;99394.33;3031734;78;21112;-63
2021/01/31 11:03:04;;;;;;;59.48;36.95;;;;;;;0.93;64.21;99396.95;3031722;78;21124;-66
2021/01/31 11:07:07;;;;;;;61.58;37.67;;;;;;;0.96;64.26;99392.84;3031386;78;21132;-66
2021/01/31 11:11:09;;;;;;;64.22;37.65;;;;;;;1.03;63.84;99391.20;3031708;78;21136;-68
2021/01/31 11:15:14;;;;;;;84.65;50.23;;;;;;;1.02;63.96;99386.91;3031531;78;21140;-63
2021/01/31 11:19:20;;;;;;;73.37;47.00;;;;;;;0.99;64.31;99383.98;3031433;78;21578;-66
2021/01/31 11:23:24;;;;;;;111.17;66.65;;;;;;;0.99;64.26;99384.84;3031497;77;21097;-64
2021/01/31 11:27:27;;;;;;;87.35;51.98;;;;;;;0.96;64.47;99381.06;3028849;78;21101;-63
2021/01/31 11:31:31;;;;;;;92.92;50.23;;;;;;;0.98;64.40;99380.98;3028944;77;21132;-62
2021/01/31 11:35:34;;;;;;;77.17;47.90;;;;;;;0.89;64.10;99377.59;3029533;78;21089;-66
2021/01/31 11:39:38;;;;;;;73.70;44.85;;;;;;;0.79;64.43;99376.78;3030997;78;21101;-66
2021/01/31 11:43:43;;;;;;;83.70;50.03;;;;;;;0.71;64.49;99379.83;3028626;78;21129;-64
2021/01/31 11:47:46;;;;;;;83.55;52.78;;;;;;;0.72;64.42;99374.14;3031015;78;21152;-62
2021/01/31 11:51:49;;;;;;;87.50;52.23;;;;;;;0.82;64.71;99369.23;3023251;77;21151;-67
2021/01/31 11:55:52;;;;;;;120.92;68.22;;;;;;;0.93;64.62;99360.77;3015634;78;21137;-62
2021/01/31 11:59:55;;;;;;;139.62;75.65;;;;;;;0.98;64.50;99351.73;3015251;79;21125;-65
2021/01/31 12:03:58;;;;;;;119.02;68.75;;;;;;;1.03;64.68;99355.85;3015202;79;21163;-65
2021/01/31 12:08:00;;;;;;;108.00;63.17;;;;;;;1.06;64.55;99348.64;3015705;78;21200;-65
2021/01/31 12:12:04;;;;;;;106.05;64.30;;;;;;;1.09;64.46;99341.09;3004943;78;21125;-67
2021/01/31 12:16:07;;;;;;;96.17;57.45;;;;;;;1.13;64.39;99332.97;3017995;78;21148;-67
2021/01/31 12:20:13;;;;;;;108.47;69.50;;;;;;;1.22;64.37;99332.05;3017322;78;21133;-68
2021/01/31 12:24:17;;;;;;;157.00;90.43;;;;;;;1.37;64.17;99330.29;3013985;78;21097;-65
2021/01/31 12:28:20;;;;;;;159.35;96.05;;;;;;;1.39;63.78;99319.28;3014379;78;21290;-67
2021/01/31 12:32:24;;;;;;;112.03;64.77;;;;;;;1.35;63.51;99313.81;3015153;79;21097;-67
2021/01/31 12:36:27;;;;;;;111.97;55.12;;;;;;;1.39;63.96;99317.97;3015172;79;21106;-67
2021/01/31 12:40:33;;;;;;;148.43;82.53;;;;;;;1.39;63.96;99317.97;3015327;79;21061;-64
2021/01/31 12:44:37;;;;;;;91.65;50.88;;;;;;;1.42;63.97;99308.61;3015184;79;21137;-65
2021/01/31 12:48:40;;;;;;;89.07;49.48;;;;;;;1.42;63.97;99308.61;3015038;78;21125;-65
2021/01/31 12:52:43;;;;;;;102.02;62.27;;;;;;;1.35;63.77;99313.81;3017306;78;21489;-63
2021/01/31 12:56:46;;;;;;;94.07;55.38;;;;;;;1.30;63.84;99310.63;3018158;78;21164;-63
2021/01/31 13:00:49;;;;;;;170.35;113.30;;;;;;;1.34;64.18;99301.66;3018235;78;21133;-61
2021/01/31 13:04:52;;;;;;;88.87;54.88;;;;;;;1.35;63.85;99300.72;3018379;78;21137;-64
2021/01/31 13:08:57;;;;;;;99.65;61.02;;;;;;;1.30;63.48;99301.46;3018398;78;21097;-60
2021/01/31 13:13:00;;;;;;;92.57;53.78;;;;;;;1.32;63.56;99302.21;3018619;78;21130;-62
2021/01/31 13:17:03;;;;;;;132.85;77.10;;;;;;;1.31;63.36;99304.01;3018781;78;21125;-65
2021/01/31 13:21:06;;;;;;;126.82;71.65;;;;;;;1.26;63.17;99298.17;3018335;78;21137;-62
2021/01/31 13:25:11;;;;;;;122.60;67.87;;;;;;;1.26;63.31;99300.79;3018624;78;21132;-62
2021/01/31 13:29:15;;;;;;;127.97;73.78;;;;;;;1.22;62.92;99296.67;3018268;78;21587;-63
2021/01/31 13:33:19;;;;;;;129.57;75.95;;;;;;;1.04;62.77;99278.96;3018098;78;21531;-67
2021/01/31 13:37:22;;;;;;;135.35;82.40;;;;;;;1.10;62.79;99298.23;3018655;78;21148;-61
2021/01/31 13:41:24;;;;;;;120.87;71.47;;;;;;;1.08;62.82;99301.42;3018596;78;21432;-65
2021/01/31 13:45:28;;;;;;;119.33;71.85;;;;;;;1.02;62.95;99295.23;3019392;78;21125;-62
2021/01/31 13:49:30;;;;;;;88.78;54.90;;;;;;;1.08;63.03;99311.89;3021062;77;21136;-63
2021/01/31 13:53:33;;;;;;;84.75;48.00;;;;;;;1.09;62.77;99296.10;3020947;77;21181;-64
2021/01/31 13:57:36;;;;;;;115.88;62.83;;;;;;;1.09;62.77;99296.10;3025336;77;21113;-62
2021/01/31 14:01:42;;;;;;;159.75;88.87;;;;;;;0.94;62.53;99305.67;3020231;77;21128;-63
2021/01/31 14:05:47;;;;;;;187.95;96.37;;;;;;;0.58;62.98;99306.83;3020092;77;21155;-64
2021/01/31 14:09:55;;;;;;;107.05;53.63;;;;;;;0.28;63.68;99305.00;3018397;78;21176;-63
2021/01/31 14:14:01;;;;;;;98.03;49.42;;;;;;;0.09;64.13;99304.70;3019306;78;21567;-61
2021/01/31 14:18:04;;;;;;;;;;;;;;;0.01;64.19;99308.20;3022525;77;21156;-63
2021/01/31 14:22:07;;;;;;;72.53;41.60;;;;;;;-0.13;64.47;99308.92;3020552;78;20160;-64
2021/01/31 14:26:10;;;;;;;77.90;44.70;;;;;;;-0.21;64.73;99301.95;3021478;78;21117;-62
2021/01/31 14:30:17;;;;;;;78.17;41.05;;;;;;;-0.26;64.64;99300.89;2961791;80;21136;-64
2021/01/31 14:34:19;;;;;;;143.57;78.92;;;;;;;-0.28;64.80;99292.28;2907056;81;21176;-64
2021/01/31 14:38:22;;;;;;;113.75;62.65;;;;;;;-0.27;64.59;99294.45;2961174;80;21120;-61
2021/01/31 14:42:28;;;;;;;106.72;59.70;;;;;;;-0.23;64.64;99290.27;2952534;80;21141;-63
2021/01/31 14:46:40;;;;;;;105.32;65.47;;;;;;;-0.21;64.69;99279.73;2952717;80;21152;-61
2021/01/31 14:51:08;;;;;;;77.53;49.45;;;;;;;-0.13;64.70;99272.31;2961678;79;21665;-64
2021/01/31 14:55:33;;;;;;;66.87;38.90;;;;;;;-0.02;64.50;99274.35;2925076;79;21143;-62
2021/01/31 14:59:57;;;;;;;77.75;40.10;;;;;;;-0.09;64.27;99265.16;2900618;81;21105;-64
2021/01/31 15:04:22;;;;;;;68.07;40.48;;;;;;;-0.26;64.31;99265.60;2935096;80;21164;-66
2021/01/31 15:08:32;;;;;;;119.35;64.15;;;;;;;-0.44;64.58;99260.91;2975825;79;21587;-64
2021/01/31 15:12:35;;;;;;;65.03;41.92;;;;;;;-0.68;65.18;99259.10;2958857;80;21105;-64
2021/01/31 15:16:40;;;;;;;91.87;46.02;;;;;;;-0.77;65.07;99265.64;2948657;80;21473;-64
2021/01/31 15:20:45;;;;;;;58.00;33.30;;;;;;;-0.90;65.15;99256.30;2972313;80;21137;-64
2021/01/31 15:24:47;;;;;;;60.03;34.70;;;;;;;-1.09;65.08;99257.22;2950818;79;21135;-65
2021/01/31 15:28:52;;;;;;;113.52;57.05;;;;;;;-1.35;65.30;99248.93;2942978;80;21121;-66
2021/01/31 15:32:56;;;;;;;92.97;48.65;;;;;;;-1.56;65.68;99246.06;2939931;80;21141;-67
2021/01/31 15:36:59;;;;;;;71.87;41.48;;;;;;;-1.73;65.87;99242.50;2937520;80;21181;-66
2021/01/31 15:41:01;;;;;;;73.70;47.23;;;;;;;-1.94;66.14;99236.09;2941015;80;21153;-68
2021/01/31 15:45:10;;;;;;;104.50;54.42;;;;;;;-2.06;66.36;99238.81;2907690;81;21152;-68
2021/01/31 15:49:13;;;;;;;111.28;58.05;;;;;;;-2.27;66.46;99236.73;2961425;80;21562;-66
2021/01/31 15:53:16;;;;;;;80.62;43.30;;;;;;;-2.47;66.65;99234.57;2967917;80;21120;-64
2021/01/31 15:57:19;;;;;;;89.42;48.48;;;;;;;-2.68;66.85;99240.73;2961785;80;21166;-68
2021/01/31 16:01:22;;;;;;;217.43;106.55;;;;;;;-2.91;67.31;99236.08;2961036;80;21140;-66
2021/01/31 16:05:28;;;;;;;284.23;149.57;;;;;;;-3.02;67.90;99231.34;2961065;80;21632;-68
2021/01/31 16:09:31;;;;;;;436.43;248.00;;;;;;;-3.01;68.02;99232.55;2961237;80;21151;-65
2021/01/31 16:13:34;;;;;;;486.12;295.33;;;;;;;-2.93;67.97;99228.32;2960816;80;21158;-66
2021/01/31 16:17:37;;;;;;;525.77;321.82;;;;;;;-2.77;67.43;99221.98;2961354;80;21139;-66
2021/01/31 16:21:40;;;;;;;208.13;119.62;;;;;;;-2.69;66.80;99228.16;2952978;80;21591;-67
2021/01/31 16:25:43;;;;;;;185.03;108.95;;;;;;;-2.66;66.11;99229.80;2952615;80;21117;-66
2021/01/31 16:29:45;;;;;;;102.22;58.83;;;;;;;-2.76;65.30;99222.38;2952891;80;21113;-67
2021/01/31 16:33:49;;;;;;;403.62;219.62;;;;;;;-3.08;64.42;99224.63;2952834;80;21144;-68
2021/01/31 16:37:55;;;;;;;300.90;168.25;;;;;;;-3.39;65.39;99231.11;2952948;80;21427;-66
2021/01/31 16:42:00;;;;;;;255.07;140.62;;;;;;;-3.45;65.74;99228.77;2952388;80;21129;-65
2021/01/31 16:46:03;;;;;;;205.40;110.48;;;;;;;-3.37;65.47;99234.48;2952586;80;21603;-65
2021/01/31 16:50:10;;;;;;;127.07;72.62;;;;;;;-3.31;64.60;99229.49;2952382;80;21190;-67
2021/01/31 16:54:14;;;;;;;130.87;67.00;;;;;;;-3.39;64.19;99227.20;2955949;80;21162;-69
2021/01/31 16:58:17;;;;;;;90.67;45.23;;;;;;;-3.76;64.87;99224.80;2957929;80;21113;-70
2021/01/31 17:02:20;;;;;;;85.80;46.75;;;;;;;-4.09;66.39;99223.94;2957911;80;21121;-67
2021/01/31 17:06:23;;;;;;;85.50;46.80;;;;;;;-4.31;67.51;99223.45;2958274;80;21141;-67
2021/01/31 17:10:28;;;;;;;80.95;46.58;;;;;;;-4.46;68.42;99220.52;2958127;80;21118;-67
2021/01/31 17:14:33;;;;;;;128.50;65.80;;;;;;;-4.60;69.13;99217.14;2957640;80;21603;-68
2021/01/31 17:18:36;;;;;;;139.75;84.77;;;;;;;-4.69;69.47;99215.33;2958276;80;21148;-67
2021/01/31 17:22:41;;;;;;;91.72;60.20;;;;;;;-4.79;69.56;99210.45;2958357;80;21093;-64
2021/01/31 17:26:49;;;;;;;101.78;55.52;;;;;;;-4.71;69.79;99204.16;2958191;80;21161;-63
2021/01/31 17:30:51;;;;;;;111.65;63.80;;;;;;;-4.76;69.70;99201.27;2957919;80;21164;-65
2021/01/31 17:34:54;;;;;;;166.65;86.80;;;;;;;-4.92;69.32;99207.46;2958377;80;21145;-65
2021/01/31 17:38:58;;;;;;;102.70;58.63;;;;;;;-5.15;69.61;99206.95;2958085;80;21458;-66
2021/01/31 17:43:01;;;;;;;81.82;43.65;;;;;;;-5.27;69.09;99204.81;2957990;80;21571;-68
2021/01/31 17:47:04;;;;;;;73.22;37.48;;;;;;;-5.35;68.81;99202.00;2958201;80;21144;-66
2021/01/31 17:51:08;;;;;;;76.00;42.98;;;;;;;-5.47;68.62;99197.25;2958322;79;21117;-66
2021/01/31 17:55:14;;;;;;;86.97;44.90;;;;;;;-5.60;69.24;99194.20;2953535;80;21160;-64
2021/01/31 17:59:17;;;;;;;105.03;47.90;;;;;;;-5.75;69.94;99193.83;2953136;80;21090;-64
2021/01/31 18:03:21;;;;;;;182.43;90.97;;;;;;;-5.85;70.50;99186.40;2952756;80;21635;-66
2021/01/31 18:07:24;;;;;;;200.22;106.40;;;;;;;-5.92;70.61;99178.80;2952963;80;21089;-65
2021/01/31 18:11:28;;;;;;;195.97;97.67;;;;;;;-6.06;70.56;99174.10;2953164;80;21121;-64
2021/01/31 18:15:32;;;;;;;111.50;57.60;;;;;;;-6.10;70.68;99171.22;2952939;79;21096;-64
2021/01/31 18:19:39;;;;;;;116.12;54.53;;;;;;;-6.21;71.05;99176.73;2953017;80;21407;-64
2021/01/31 18:23:49;;;;;;;104.17;56.92;;;;;;;-6.33;71.46;99170.19;2953124;80;21117;-66
2021/01/31 18:27:51;;;;;;;134.78;74.10;;;;;;;-6.39;71.38;99165.64;2952888;80;21113;-66
2021/01/31 18:31:54;;;;;;;134.87;64.42;;;;;;;-6.51;71.25;99162.52;2953156;80;21145;-65
2021/01/31 18:35:57;;;;;;;101.07;59.23;;;;;;;-6.65;71.16;99164.69;2952688;80;21583;-64
2021/01/31 18:40:03;;;;;;;221.62;117.65;;;;;;;-6.67;71.27;99164.72;2952697;80;21638;-66
2021/01/31 18:44:07;;;;;;;94.17;50.60;;;;;;;-6.65;71.94;99157.75;2953405;80;21093;-64
2021/01/31 18:48:10;;;;;;;118.77;51.88;;;;;;;-6.48;71.54;99157.27;2952968;80;21086;-66
2021/01/31 18:52:13;;;;;;;100.58;49.65;;;;;;;-6.54;69.66;99155.31;2953078;80;21113;-64
2021/01/31 18:56:18;;;;;;;89.70;47.93;;;;;;;-6.60;71.17;99153.75;2958323;80;21527;-65
2021/01/31 19:00:26;;;;;;;102.75;50.98;;;;;;;-6.52;71.99;99142.70;2958863;80;21125;-64
2021/01/31 19:04:29;;;;;;;105.87;55.55;;;;;;;-6.38;72.25;99146.63;2957674;80;21568;-64